Time;durP1;ratioP1;P1;durP2;ratioP2;P2;SDS_P1;SDS_P2;PMS_P1;PMS_P2;Temp;Humidity;BMP_temperature;BMP_pressure;BME280_temperature;BME280_humidity;BME280_pressure;Samples;Min_cycle;Max_cycle;Signal;HPM_P1;HPM_P2
2024/02/19 00:01:43;;;;;;;8.40;2.67;;;9.40;99.90;;;;;;5080692;28;20544;-82
2024/02/19 00:04:10;;;;;;;4.37;2.00;;;9.30;99.90;;;;;;5081077;28;20989;-81
2024/02/19 00:06:37;;;;;;;10.77;3.50;;;9.30;99.90;;;;;;5084577;28;20540;-81
2024/02/19 00:09:05;;;;;;;10.27;3.20;;;9.30;99.90;;;;;;5091731;28;20482;-82
2024/02/19 00:11:33;;;;;;;5.67;2.83;;;9.30;99.90;;;;;;5079291;28;20508;-82
2024/02/19 00:14:00;;;;;;;5.87;2.60;;;9.30;99.90;;;;;;5080163;28;20466;-83
2024/02/19 00:16:27;;;;;;;6.17;2.53;;;9.40;99.90;;;;;;5086588;28;20487;-81
2024/02/19 00:18:54;;;;;;;5.97;3.43;;;9.30;99.90;;;;;;5080883;28;20497;-83
2024/02/19 00:21:21;;;;;;;7.10;3.23;;;9.30;99.90;;;;;;5087121;28;20482;-82
2024/02/19 00:23:48;;;;;;;8.60;3.03;;;9.30;99.90;;;;;;5084820;28;20488;-83
2024/02/19 00:26:15;;;;;;;5.97;2.70;;;9.30;99.90;;;;;;5100242;28;20456;-79
2024/02/19 00:28:44;;;;;;;12.27;3.03;;;9.30;99.90;;;;;;5108327;28;20528;-80
2024/02/19 00:31:12;;;;;;;10.10;3.67;;;9.30;99.90;;;;;;5102089;28;20502;-82
2024/02/19 00:33:39;;;;;;;8.07;2.50;;;9.30;99.90;;;;;;5090598;28;20561;-81
2024/02/19 00:36:06;;;;;;;16.70;3.10;;;9.30;99.90;;;;;;5088461;28;20485;-81
2024/02/19 00:38:33;;;;;;;7.87;2.60;;;9.20;99.90;;;;;;5079322;28;20640;-82
2024/02/19 00:41:00;;;;;;;6.20;3.10;;;9.20;99.90;;;;;;5087169;28;20480;-81
2024/02/19 00:43:26;;;;;;;9.93;2.53;;;9.20;99.90;;;;;;5088309;28;20552;-80
2024/02/19 00:45:55;;;;;;;8.47;2.33;;;9.20;99.90;;;;;;5082462;28;21007;-82
2024/02/19 00:48:22;;;;;;;5.70;2.50;;;9.20;99.90;;;;;;5086903;28;20458;-80
2024/02/19 00:50:49;;;;;;;8.73;3.20;;;9.30;99.90;;;;;;5086320;28;20451;-81
2024/02/19 00:53:16;;;;;;;4.90;2.23;;;9.30;99.90;;;;;;5081932;28;20462;-79
2024/02/19 00:55:43;;;;;;;6.50;2.50;;;9.20;99.90;;;;;;5089405;28;20482;-82
2024/02/19 00:58:10;;;;;;;12.73;2.60;;;9.10;99.90;;;;;;5089016;28;21020;-81
2024/02/19 01:00:36;;;;;;;12.47;2.60;;;9.20;99.90;;;;;;5082532;28;20474;-80
2024/02/19 01:03:05;;;;;;;13.03;2.27;;;9.10;99.90;;;;;;5075955;28;20487;-79
2024/02/19 01:05:34;;;;;;;14.37;6.27;;;9.10;99.90;;;;;;5084356;28;20463;-81
2024/02/19 01:08:01;;;;;;;7.80;2.70;;;9.10;99.90;;;;;;5077116;28;20497;-80
2024/02/19 01:10:27;;;;;;;4.83;1.70;;;9.00;99.90;;;;;;5079481;28;20458;-81
2024/02/19 01:12:54;;;;;;;7.40;2.43;;;8.90;99.90;;;;;;5087773;28;20480;-82
2024/02/19 01:15:23;;;;;;;4.17;1.80;;;8.80;99.90;;;;;;5088302;28;20508;-81
2024/02/19 01:17:50;;;;;;;6.37;1.97;;;8.70;99.90;;;;;;5089519;28;20485;-81
2024/02/19 01:20:20;;;;;;;11.43;1.60;;;8.70;99.90;;;;;;5089938;28;20583;-81
2024/02/19 01:22:46;;;;;;;12.23;2.13;;;8.60;99.90;;;;;;5090128;28;20470;-82
2024/02/19 01:25:13;;;;;;;3.40;1.50;;;8.60;99.90;;;;;;5090178;28;20969;-82
2024/02/19 01:27:42;;;;;;;7.00;1.70;;;8.60;99.90;;;;;;5081405;28;20452;-80
2024/02/19 01:30:10;;;;;;;7.00;1.97;;;8.60;99.90;;;;;;5083993;28;20449;-80
2024/02/19 01:32:39;;;;;;;15.53;2.73;;;8.60;99.90;;;;;;5083883;28;20464;-82
2024/02/19 01:35:08;;;;;;;8.03;1.97;;;8.60;99.90;;;;;;5091043;28;20451;-79
2024/02/19 01:37:36;;;;;;;6.03;1.93;;;8.60;99.90;;;;;;5099103;28;20519;-82
2024/02/19 01:40:07;;;;;;;6.90;1.60;;;8.50;99.90;;;;;;5097831;28;20453;-81
2024/02/19 01:42:34;;;;;;;10.63;1.53;;;8.50;99.90;;;;;;5084496;28;20479;-81
2024/02/19 01:45:01;;;;;;;9.83;2.17;;;8.50;99.90;;;;;;5089574;28;20873;-81
2024/02/19 01:47:29;;;;;;;7.03;1.67;;;8.50;99.90;;;;;;5076855;28;21293;-78
2024/02/19 01:49:56;;;;;;;13.00;1.77;;;8.50;99.90;;;;;;5095059;28;20461;-79
2024/02/19 01:52:24;;;;;;;6.67;1.57;;;8.50;99.90;;;;;;5088242;28;20511;-82
2024/02/19 01:54:54;;;;;;;14.80;2.33;;;8.50;99.90;;;;;;5086256;28;20453;-79
2024/02/19 01:57:22;;;;;;;13.47;2.40;;;8.60;99.90;;;;;;5087192;28;20557;-80
2024/02/19 01:59:49;;;;;;;6.90;2.10;;;8.50;99.90;;;;;;5087720;28;20462;-80
2024/02/19 02:02:18;;;;;;;11.43;2.23;;;8.60;99.90;;;;;;5090942;28;20480;-80
2024/02/19 02:04:45;;;;;;;12.97;2.53;;;8.60;99.90;;;;;;5089160;28;20461;-81
2024/02/19 02:07:12;;;;;;;11.43;2.10;;;8.60;99.90;;;;;;5088261;28;20476;-83
2024/02/19 02:09:39;;;;;;;10.97;2.20;;;8.60;99.90;;;;;;5092682;28;20452;-80
2024/02/19 02:12:07;;;;;;;15.33;3.10;;;8.70;99.90;;;;;;5088008;28;20540;-81
2024/02/19 02:14:34;;;;;;;6.60;1.90;;;8.80;99.90;;;;;;5098333;28;20453;-82
2024/02/19 02:17:01;;;;;;;13.13;2.83;;;8.80;99.90;;;;;;5096323;28;20931;-80
2024/02/19 02:19:28;;;;;;;9.50;2.47;;;8.90;99.90;;;;;;5080803;28;20531;-81
2024/02/19 02:21:55;;;;;;;12.43;2.80;;;8.90;99.90;;;;;;5085698;28;21348;-79
2024/02/19 02:24:21;;;;;;;10.90;3.07;;;8.90;99.90;;;;;;5091777;28;20969;-81
2024/02/19 02:26:50;;;;;;;9.80;2.67;;;8.90;99.90;;;;;;5091827;28;20450;-78
2024/02/19 02:29:16;;;;;;;10.07;2.10;;;8.90;99.90;;;;;;5092532;28;20564;-81
2024/02/19 02:31:43;;;;;;;12.70;2.77;;;8.90;99.90;;;;;;5089197;28;20486;-80
2024/02/19 02:34:10;;;;;;;8.63;2.50;;;8.90;99.90;;;;;;5092165;28;20459;-83
2024/02/19 02:36:40;;;;;;;7.80;2.23;;;8.90;99.90;;;;;;5081386;28;20560;-80
2024/02/19 02:39:07;;;;;;;18.17;2.40;;;8.90;99.90;;;;;;5099181;28;20456;-82
2024/02/19 02:41:34;;;;;;;13.70;1.93;;;8.90;99.90;;;;;;5090054;28;20454;-80
2024/02/19 02:44:02;;;;;;;11.63;2.43;;;8.90;99.90;;;;;;5091628;28;20525;-81
2024/02/19 02:46:29;;;;;;;13.07;2.33;;;9.00;99.90;;;;;;5097989;28;20457;-80
2024/02/19 02:48:56;;;;;;;6.50;2.03;;;8.90;99.90;;;;;;5091018;28;20533;-80
2024/02/19 02:51:23;;;;;;;8.03;2.10;;;8.90;99.90;;;;;;5092330;28;20488;-79
2024/02/19 02:53:49;;;;;;;8.93;2.10;;;8.90;99.90;;;;;;5093764;28;20516;-81
2024/02/19 02:56:20;;;;;;;9.70;1.93;;;9.00;99.90;;;;;;5101001;28;20490;-80
2024/02/19 02:58:47;;;;;;;8.03;2.30;;;9.00;99.90;;;;;;5097971;28;20941;-81
2024/02/19 03:01:18;;;;;;;7.63;1.90;;;9.00;99.90;;;;;;5094176;28;21084;-81
2024/02/19 03:03:45;;;;;;;7.63;2.00;;;9.10;99.90;;;;;;5089074;28;20467;-82
2024/02/19 03:06:12;;;;;;;9.10;2.27;;;9.10;99.90;;;;;;5100569;28;20525;-83
2024/02/19 03:08:38;;;;;;;14.97;2.80;;;9.00;99.90;;;;;;5100570;28;20485;-81
2024/02/19 03:11:06;;;;;;;4.10;1.57;;;8.90;99.90;;;;;;5094766;28;20546;-83
2024/02/19 03:13:33;;;;;;;10.17;2.00;;;9.00;99.90;;;;;;5095384;28;20540;-81
2024/02/19 03:16:01;;;;;;;10.00;2.03;;;8.90;99.90;;;;;;5093107;28;20544;-83
2024/02/19 03:18:29;;;;;;;5.60;2.27;;;8.90;99.90;;;;;;5098634;28;20566;-82
2024/02/19 03:20:56;;;;;;;10.00;1.83;;;8.90;99.90;;;;;;5082415;28;20517;-81
2024/02/19 03:23:23;;;;;;;9.63;1.73;;;8.90;99.90;;;;;;5092132;28;20503;-82
2024/02/19 03:25:50;;;;;;;11.10;2.40;;;8.80;99.90;;;;;;5084702;28;20457;-83
2024/02/19 03:28:17;;;;;;;12.70;2.63;;;8.80;99.90;;;;;;5106497;28;20460;-81
2024/02/19 03:30:44;;;;;;;12.17;2.30;;;8.80;99.90;;;;;;5092335;28;20547;-82
2024/02/19 03:33:11;;;;;;;6.03;2.40;;;8.90;99.90;;;;;;5094222;28;20514;-81
2024/02/19 03:35:39;;;;;;;8.60;2.43;;;8.90;99.90;;;;;;5085345;28;20463;-83
2024/02/19 03:38:06;;;;;;;7.00;1.83;;;8.90;99.90;;;;;;5087383;28;20489;-80
2024/02/19 03:40:32;;;;;;;9.57;2.53;;;8.90;99.90;;;;;;5096941;28;20519;-82
2024/02/19 03:42:59;;;;;;;8.30;1.50;;;8.90;99.90;;;;;;5087872;28;20481;-82
2024/02/19 03:45:26;;;;;;;6.27;1.70;;;8.90;99.90;;;;;;5092627;28;20552;-82
2024/02/19 03:47:53;;;;;;;10.57;2.73;;;8.80;99.90;;;;;;5106867;28;20542;-82
2024/02/19 03:50:20;;;;;;;11.93;2.40;;;8.90;99.90;;;;;;5098120;28;20547;-80
2024/02/19 03:52:48;;;;;;;3.63;1.50;;;8.90;99.90;;;;;;5097602;28;21040;-82
2024/02/19 03:55:15;;;;;;;10.97;2.20;;;8.90;99.90;;;;;;5093352;28;20562;-83
2024/02/19 03:57:42;;;;;;;3.00;1.47;;;8.90;99.90;;;;;;5086798;28;20555;-82
2024/02/19 04:00:11;;;;;;;7.47;1.80;;;8.90;99.90;;;;;;5097772;28;20452;-83
2024/02/19 04:02:39;;;;;;;8.30;2.30;;;8.90;99.90;;;;;;5101066;28;20477;-84
2024/02/19 04:05:07;;;;;;;7.60;1.50;;;9.00;99.90;;;;;;5105283;28;20491;-80
2024/02/19 04:07:34;;;;;;;7.10;1.67;;;9.00;99.90;;;;;;5098627;28;20441;-82
2024/02/19 04:10:02;;;;;;;7.10;2.60;;;9.00;99.90;;;;;;5098403;28;20460;-84
2024/02/19 04:12:29;;;;;;;10.87;2.13;;;8.90;99.90;;;;;;5107217;28;20530;-81
2024/02/19 04:14:56;;;;;;;5.97;2.50;;;8.90;99.90;;;;;;5098442;28;20477;-80
2024/02/19 04:17:23;;;;;;;8.20;2.20;;;8.90;99.90;;;;;;5100229;28;20499;-80
2024/02/19 04:19:52;;;;;;;8.30;2.50;;;8.90;99.90;;;;;;5088939;28;20540;-83
2024/02/19 04:22:19;;;;;;;14.80;4.83;;;8.90;99.90;;;;;;5092202;28;21006;-80
2024/02/19 04:24:47;;;;;;;6.40;1.70;;;8.90;99.90;;;;;;5102872;28;20545;-80
2024/02/19 04:27:17;;;;;;;11.37;1.67;;;9.00;99.90;;;;;;5099170;28;20511;-80
2024/02/19 04:29:44;;;;;;;12.83;1.97;;;8.90;99.90;;;;;;5094446;28;20444;-84
2024/02/19 04:32:11;;;;;;;8.67;1.87;;;8.90;99.90;;;;;;5084911;28;20572;-83
2024/02/19 04:34:39;;;;;;;7.30;1.40;;;9.00;99.90;;;;;;5091888;28;20451;-80
2024/02/19 04:37:07;;;;;;;9.90;2.70;;;9.00;99.90;;;;;;5092309;28;20987;-81
2024/02/19 04:39:34;;;;;;;8.40;2.20;;;9.00;99.90;;;;;;5099952;28;20528;-82
2024/02/19 04:42:02;;;;;;;9.43;2.20;;;9.00;99.90;;;;;;5109549;28;20452;-82
2024/02/19 04:44:31;;;;;;;6.97;1.90;;;9.00;99.90;;;;;;5104333;28;20488;-81
2024/02/19 04:46:58;;;;;;;9.40;2.50;;;9.10;99.90;;;;;;5093360;28;20984;-82
2024/02/19 04:49:25;;;;;;;8.87;2.23;;;9.00;99.90;;;;;;5112267;28;20464;-83
2024/02/19 04:51:51;;;;;;;12.43;2.30;;;9.00;99.90;;;;;;5111247;28;20508;-81
2024/02/19 04:54:18;;;;;;;10.37;2.30;;;9.00;99.90;;;;;;5094819;28;20461;-81
2024/02/19 04:56:46;;;;;;;13.67;3.50;;;9.00;99.90;;;;;;5097927;28;20481;-83
2024/02/19 04:59:13;;;;;;;11.53;2.60;;;9.00;99.90;;;;;;5102470;28;20584;-80
2024/02/19 05:01:41;;;;;;;12.30;2.47;;;9.00;99.90;;;;;;5093737;28;20522;-80
2024/02/19 05:04:08;;;;;;;9.97;3.00;;;9.00;99.90;;;;;;5101780;28;20513;-83
2024/02/19 05:06:35;;;;;;;11.90;3.10;;;9.00;99.90;;;;;;5089417;28;20500;-80
2024/02/19 05:09:02;;;;;;;12.37;3.90;;;9.10;99.90;;;;;;5100463;28;20465;-84
2024/02/19 05:11:29;;;;;;;7.80;3.30;;;9.10;99.90;;;;;;5104630;28;20480;-81
2024/02/19 05:13:56;;;;;;;11.30;2.40;;;9.10;99.90;;;;;;5102004;28;20558;-83
2024/02/19 05:16:22;;;;;;;11.10;3.10;;;9.20;99.90;;;;;;5089528;28;20485;-81
2024/02/19 05:18:51;;;;;;;16.20;4.27;;;9.10;99.90;;;;;;5104156;28;20507;-85
2024/02/19 05:21:18;;;;;;;9.17;3.40;;;9.10;99.90;;;;;;5111377;28;20501;-81
2024/02/19 05:23:45;;;;;;;16.53;5.00;;;9.10;99.90;;;;;;5108494;28;20491;-83
2024/02/19 05:26:12;;;;;;;17.37;4.33;;;9.10;99.90;;;;;;5098525;28;20489;-82
2024/02/19 05:28:39;;;;;;;10.60;3.47;;;9.10;99.90;;;;;;5106026;28;20449;-81
2024/02/19 05:31:06;;;;;;;15.43;3.87;;;9.10;99.90;;;;;;5107133;28;20540;-81
2024/02/19 05:33:33;;;;;;;8.90;3.83;;;9.20;99.90;;;;;;5088150;28;20553;-82
2024/02/19 05:36:01;;;;;;;24.10;4.40;;;9.20;99.90;;;;;;5086496;28;20522;-79
2024/02/19 05:38:27;;;;;;;14.83;4.10;;;9.10;99.90;;;;;;5107900;28;20490;-79
2024/02/19 05:40:54;;;;;;;17.77;4.40;;;9.10;99.90;;;;;;5100681;28;20931;-81
2024/02/19 05:43:21;;;;;;;9.77;3.80;;;9.10;99.90;;;;;;5099029;28;20903;-82
2024/02/19 05:45:48;;;;;;;17.67;4.60;;;9.20;99.90;;;;;;5106547;28;20452;-80
2024/02/19 05:48:14;;;;;;;8.77;4.00;;;9.20;99.90;;;;;;5108899;28;20516;-82
2024/02/19 05:50:41;;;;;;;13.30;4.40;;;9.20;99.90;;;;;;5107749;28;20450;-80
2024/02/19 05:53:09;;;;;;;12.30;5.20;;;9.20;99.90;;;;;;5095487;28;20463;-82
2024/02/19 05:55:36;;;;;;;11.43;3.90;;;9.20;99.90;;;;;;5085283;28;20536;-81
2024/02/19 05:58:03;;;;;;;16.67;4.93;;;9.10;99.90;;;;;;5104878;28;20493;-79
2024/02/19 06:00:30;;;;;;;12.20;3.87;;;9.10;99.90;;;;;;5101664;28;20576;-81
2024/02/19 06:03:03;;;;;;;15.37;3.60;;;9.20;99.90;;;;;;5102040;28;20474;-79
2024/02/19 06:05:29;;;;;;;10.47;3.47;;;9.10;99.90;;;;;;5097977;28;20487;-79
2024/02/19 06:07:56;;;;;;;23.43;5.97;;;9.10;99.90;;;;;;5090603;28;20468;-81
2024/02/19 06:10:24;;;;;;;14.77;3.80;;;9.10;99.90;;;;;;5099237;28;20844;-82
2024/02/19 06:12:52;;;;;;;14.10;4.30;;;9.10;99.90;;;;;;5099304;28;20480;-81
2024/02/19 06:15:19;;;;;;;17.07;5.13;;;9.10;99.90;;;;;;5104264;28;20454;-80
2024/02/19 06:17:46;;;;;;;22.10;6.70;;;9.10;99.90;;;;;;5085147;28;20483;-81
2024/02/19 06:20:13;;;;;;;14.93;5.77;;;9.10;99.90;;;;;;5095721;28;20452;-79
2024/02/19 06:22:39;;;;;;;17.07;5.00;;;9.10;99.90;;;;;;5101597;28;20894;-80
2024/02/19 06:25:07;;;;;;;28.90;5.30;;;9.10;99.90;;;;;;5105716;28;20460;-80
2024/02/19 06:27:35;;;;;;;17.70;5.63;;;9.10;99.90;;;;;;5099021;28;20453;-81
2024/02/19 06:30:02;;;;;;;16.10;5.53;;;9.20;99.90;;;;;;5089722;28;20553;-79
2024/02/19 06:32:28;;;;;;;16.57;6.50;;;9.20;99.90;;;;;;5099872;28;20501;-80
2024/02/19 06:34:55;;;;;;;23.33;5.50;;;9.20;99.90;;;;;;5106992;28;20524;-80
2024/02/19 06:37:22;;;;;;;15.90;6.03;;;9.10;99.90;;;;;;5101595;28;20502;-81
2024/02/19 06:39:49;;;;;;;17.27;5.50;;;9.20;99.90;;;;;;5103619;28;20507;-81
2024/02/19 06:42:17;;;;;;;22.77;6.73;;;9.20;99.90;;;;;;5106808;28;20534;-78
2024/02/19 06:44:46;;;;;;;19.23;6.87;;;9.20;99.90;;;;;;5100796;28;20457;-81
2024/02/19 06:47:13;;;;;;;20.30;8.00;;;9.30;99.90;;;;;;5093327;28;20525;-82
2024/02/19 06:49:40;;;;;;;19.73;8.33;;;9.30;99.90;;;;;;5101907;28;20964;-79
2024/02/19 06:52:06;;;;;;;13.10;7.30;;;9.30;99.90;;;;;;5098630;28;20555;-81
2024/02/19 06:54:33;;;;;;;14.63;7.20;;;9.30;99.90;;;;;;5092467;28;20465;-80
2024/02/19 06:57:03;;;;;;;64.50;27.57;;;9.30;99.90;;;;;;5092198;28;20461;-79
2024/02/19 06:59:31;;;;;;;21.10;10.90;;;9.30;99.90;;;;;;5096575;28;20473;-80
2024/02/19 07:01:59;;;;;;;15.83;7.43;;;9.40;99.90;;;;;;5100413;28;20475;-84
2024/02/19 07:04:26;;;;;;;27.80;8.70;;;9.40;99.90;;;;;;5100673;28;20450;-81
2024/02/19 07:06:56;;;;;;;19.90;8.10;;;9.40;99.90;;;;;;5102086;28;20523;-80
2024/02/19 07:09:24;;;;;;;12.30;7.90;;;9.40;99.90;;;;;;5104591;28;20926;-82
2024/02/19 07:11:51;;;;;;;16.90;8.67;;;9.40;99.90;;;;;;5099251;28;20484;-79
2024/02/19 07:14:18;;;;;;;17.97;8.00;;;9.40;99.90;;;;;;5098697;28;20548;-82
2024/02/19 07:16:49;;;;;;;16.27;8.90;;;9.40;99.90;;;;;;5109013;28;20815;-83
2024/02/19 07:19:19;;;;;;;14.83;8.57;;;9.50;99.90;;;;;;5109801;28;20493;-80
2024/02/19 07:21:46;;;;;;;22.80;12.13;;;9.40;99.90;;;;;;5109889;28;20540;-83
2024/02/19 07:24:13;;;;;;;20.27;9.87;;;9.40;99.90;;;;;;5109078;28;20519;-83
2024/02/19 07:26:40;;;;;;;28.23;11.17;;;9.40;99.90;;;;;;5109671;28;20520;-82
2024/02/19 07:29:07;;;;;;;17.93;10.20;;;9.40;99.90;;;;;;5112824;28;20481;-83
2024/02/19 07:31:34;;;;;;;21.87;11.67;;;9.50;99.90;;;;;;5104220;28;20924;-83
2024/02/19 07:34:01;;;;;;;21.40;11.60;;;9.50;99.90;;;;;;5116121;28;20540;-82
2024/02/19 07:36:29;;;;;;;23.57;11.17;;;9.40;99.90;;;;;;5113355;28;20500;-80
2024/02/19 07:38:56;;;;;;;27.03;12.83;;;9.40;99.90;;;;;;5113085;28;21087;-83
2024/02/19 07:41:22;;;;;;;24.83;13.07;;;9.50;99.90;;;;;;5108377;28;20508;-80
2024/02/19 07:43:51;;;;;;;20.57;13.17;;;9.50;99.90;;;;;;5116752;28;20445;-83
2024/02/19 07:46:18;;;;;;;23.97;11.90;;;9.50;99.90;;;;;;5118817;28;20453;-81
2024/02/19 07:48:45;;;;;;;19.73;12.07;;;9.60;99.90;;;;;;5119326;28;20445;-83
2024/02/19 07:51:15;;;;;;;19.50;11.20;;;9.60;99.90;;;;;;5118756;28;20475;-82
2024/02/19 07:53:43;;;;;;;22.33;12.57;;;9.70;99.90;;;;;;5114482;28;20469;-82
2024/02/19 07:56:11;;;;;;;19.03;11.63;;;9.70;99.90;;;;;;5111957;28;21001;-83
2024/02/19 07:58:38;;;;;;;17.87;12.50;;;9.70;99.90;;;;;;5102399;28;20501;-83
2024/02/19 08:01:06;;;;;;;22.00;11.47;;;9.80;99.90;;;;;;5103846;28;20550;-81
2024/02/19 08:03:34;;;;;;;18.90;12.40;;;9.80;99.90;;;;;;5088879;28;20482;-82
2024/02/19 08:06:01;;;;;;;26.60;12.47;;;9.80;99.90;;;;;;5087398;28;20868;-82
2024/02/19 08:08:29;;;;;;;17.07;10.13;;;9.70;99.90;;;;;;5100591;28;20469;-82
2024/02/19 08:10:58;;;;;;;21.40;10.33;;;9.60;99.90;;;;;;5090111;28;20457;-82
2024/02/19 08:13:26;;;;;;;18.30;10.20;;;9.50;99.90;;;;;;5086750;28;20848;-81
2024/02/19 08:15:56;;;;;;;26.57;9.07;;;9.50;99.90;;;;;;5095004;28;20536;-82
2024/02/19 08:18:23;;;;;;;18.83;7.87;;;9.50;99.90;;;;;;5100944;28;20483;-82
2024/02/19 08:20:53;;;;;;;15.03;7.67;;;9.50;99.90;;;;;;5091978;27;20477;-81
2024/02/19 08:23:20;;;;;;;16.60;7.57;;;9.50;99.90;;;;;;5090396;28;20468;-83
2024/02/19 08:25:48;;;;;;;18.40;7.30;;;9.40;99.90;;;;;;5097986;28;20458;-82
2024/02/19 08:28:16;;;;;;;17.10;7.00;;;9.40;99.90;;;;;;5095159;28;20522;-82
2024/02/19 08:30:43;;;;;;;15.40;6.00;;;9.50;99.90;;;;;;5097049;28;20530;-81
2024/02/19 08:33:10;;;;;;;13.37;5.90;;;9.60;99.90;;;;;;5094018;28;20482;-82
2024/02/19 08:35:37;;;;;;;19.97;7.00;;;9.70;99.90;;;;;;5083048;28;20465;-82
2024/02/19 08:38:04;;;;;;;13.90;6.17;;;9.80;99.90;;;;;;5098428;28;20460;-80
2024/02/19 08:40:34;;;;;;;13.60;6.33;;;9.80;99.90;;;;;;5094942;28;20489;-82
2024/02/19 08:43:01;;;;;;;20.13;5.90;;;9.80;99.90;;;;;;5102308;28;20496;-82
2024/02/19 08:45:29;;;;;;;17.20;5.93;;;9.90;99.90;;;;;;5098328;28;20522;-80
2024/02/19 08:47:56;;;;;;;11.30;5.40;;;10.00;99.90;;;;;;5097340;28;20449;-83
2024/02/19 08:50:23;;;;;;;13.83;7.40;;;10.10;99.90;;;;;;5094149;28;20478;-83
2024/02/19 08:52:52;;;;;;;14.37;5.90;;;10.10;99.90;;;;;;5096280;28;20520;-81
2024/02/19 08:55:18;;;;;;;15.13;6.27;;;10.20;99.90;;;;;;5088277;28;20969;-82
2024/02/19 08:57:45;;;;;;;13.63;6.67;;;10.30;99.90;;;;;;5101062;28;20467;-81
2024/02/19 09:00:13;;;;;;;14.50;6.57;;;10.30;99.90;;;;;;5107566;28;20572;-82
2024/02/19 09:02:42;;;;;;;15.97;8.03;;;10.40;99.90;;;;;;5102964;28;20481;-81
2024/02/19 09:05:11;;;;;;;14.17;8.23;;;10.50;99.90;;;;;;5104710;28;20460;-80
2024/02/19 09:07:38;;;;;;;18.57;8.50;;;10.50;99.90;;;;;;5093393;28;20463;-78
2024/02/19 09:10:06;;;;;;;15.97;7.23;;;10.60;99.90;;;;;;5092672;28;20474;-81
2024/02/19 09:12:35;;;;;;;17.73;7.07;;;10.80;99.90;;;;;;5096761;28;20504;-81
2024/02/19 09:15:10;;;;;;;17.40;6.50;;;11.00;99.90;;;;;;5094649;28;20449;-79
2024/02/19 09:17:37;;;;;;;21.43;6.50;;;11.10;99.90;;;;;;5103928;28;20913;-81
2024/02/19 09:20:09;;;;;;;9.93;5.03;;;11.20;99.90;;;;;;5094025;28;20485;-81
2024/02/19 09:22:35;;;;;;;13.67;6.00;;;11.10;99.90;;;;;;5099098;28;20462;-80
2024/02/19 09:25:05;;;;;;;17.60;6.60;;;11.10;99.90;;;;;;5097068;28;20456;-79
2024/02/19 09:27:36;;;;;;;17.33;4.73;;;11.10;99.90;;;;;;5099101;28;20455;-81
2024/02/19 09:30:04;;;;;;;14.20;5.00;;;11.10;99.90;;;;;;5094408;28;20446;-80
2024/02/19 09:32:31;;;;;;;15.10;4.77;;;11.30;99.90;;;;;;5106628;28;20464;-82
2024/02/19 09:34:58;;;;;;;14.80;5.17;;;11.50;99.90;;;;;;5107774;28;20502;-80
2024/02/19 09:37:28;;;;;;;12.37;4.37;;;11.70;99.90;;;;;;5105346;28;20516;-81
2024/02/19 09:39:58;;;;;;;8.23;4.33;;;11.70;99.90;;;;;;5105740;28;20517;-80
2024/02/19 09:42:28;;;;;;;20.70;5.80;;;11.90;99.90;;;;;;5093430;28;20499;-82
2024/02/19 09:44:58;;;;;;;9.37;4.80;;;11.70;99.90;;;;;;5086813;28;20448;-81
2024/02/19 09:47:29;;;;;;;10.80;5.23;;;11.70;99.90;;;;;;5088017;28;20460;-81
2024/02/19 09:49:57;;;;;;;19.00;9.60;;;11.80;99.90;;;;;;5093959;28;20530;-81
2024/02/19 09:52:26;;;;;;;34.00;13.23;;;11.60;99.90;;;;;;5094185;28;20497;-79
2024/02/19 09:54:53;;;;;;;12.63;6.80;;;11.50;99.90;;;;;;5103346;28;20933;-81
2024/02/19 09:57:20;;;;;;;13.07;4.97;;;11.70;99.90;;;;;;5100193;28;20811;-81
2024/02/19 09:59:49;;;;;;;12.50;5.00;;;11.80;99.90;;;;;;5081995;28;21040;-80
2024/02/19 10:02:18;;;;;;;12.90;6.63;;;12.00;99.90;;;;;;5091478;28;20470;-79
2024/02/19 10:04:46;;;;;;;13.43;6.20;;;12.00;99.90;;;;;;5081027;28;20458;-81
2024/02/19 10:07:16;;;;;;;14.30;6.37;;;11.90;99.90;;;;;;5100143;28;20457;-78
2024/02/19 10:09:48;;;;;;;18.47;5.87;;;11.90;99.90;;;;;;5102447;28;20537;-82
2024/02/19 10:12:18;;;;;;;13.97;6.27;;;11.80;99.90;;;;;;5101450;28;20557;-79
2024/02/19 10:14:45;;;;;;;7.67;6.10;;;11.90;99.90;;;;;;5102045;28;20453;-80
2024/02/19 10:17:15;;;;;;;12.03;5.53;;;12.00;99.90;;;;;;5100329;28;20538;-81
2024/02/19 10:19:46;;;;;;;11.67;6.17;;;12.10;99.90;;;;;;5101677;28;20522;-81
2024/02/19 10:22:16;;;;;;;20.03;7.57;;;12.20;99.90;;;;;;5102029;28;20914;-80
2024/02/19 10:24:44;;;;;;;14.30;5.93;;;12.30;99.90;;;;;;5087156;28;20497;-80
2024/02/19 10:27:11;;;;;;;22.00;6.83;;;12.40;99.90;;;;;;5098603;28;21091;-82
2024/02/19 10:29:38;;;;;;;15.30;6.20;;;12.60;99.90;;;;;;5082041;28;20518;-82
2024/02/19 10:32:07;;;;;;;10.17;5.53;;;12.60;99.90;;;;;;5088991;28;20538;-80
2024/02/19 10:34:34;;;;;;;13.97;4.87;;;12.70;99.90;;;;;;5083441;28;20453;-81
2024/02/19 10:37:03;;;;;;;11.00;5.33;;;12.80;99.90;;;;;;5088856;28;20444;-81
2024/02/19 10:39:31;;;;;;;12.47;5.83;;;12.80;99.90;;;;;;5101717;28;20897;-82
2024/02/19 10:42:00;;;;;;;10.07;5.43;;;13.00;99.90;;;;;;5100556;28;20471;-83
2024/02/19 10:44:29;;;;;;;18.33;5.80;;;13.20;99.90;;;;;;5087508;28;20455;-82
2024/02/19 10:46:56;;;;;;;12.67;5.20;;;13.40;99.90;;;;;;5095351;28;20453;-79
2024/02/19 10:49:23;;;;;;;9.17;5.10;;;13.30;99.90;;;;;;5087987;28;20479;-79
2024/02/19 10:51:52;;;;;;;12.13;5.20;;;13.30;99.90;;;;;;5096218;28;20499;-81
2024/02/19 10:54:19;;;;;;;14.13;5.90;;;13.20;99.90;;;;;;5098393;28;20548;-82
2024/02/19 10:56:46;;;;;;;14.33;6.13;;;12.90;99.90;;;;;;5100434;28;20917;-80
2024/02/19 10:59:16;;;;;;;14.97;5.63;;;12.80;99.90;;;;;;5103957;28;20493;-82
2024/02/19 11:01:46;;;;;;;11.30;6.50;;;12.80;99.90;;;;;;5104496;28;20482;-81
2024/02/19 11:04:24;;;;;;;12.80;6.73;;;12.80;99.90;;;;;;5100745;28;20457;-81
2024/02/19 11:06:54;;;;;;;15.93;7.23;;;12.70;99.90;;;;;;5098872;28;20454;-81
2024/02/19 11:09:21;;;;;;;10.87;5.67;;;12.70;99.90;;;;;;5100424;28;20454;-82
2024/02/19 11:11:53;;;;;;;13.13;7.67;;;12.70;99.90;;;;;;5101238;28;20545;-82
2024/02/19 11:14:22;;;;;;;13.90;7.67;;;12.60;99.90;;;;;;5106456;28;20503;-82
2024/02/19 11:16:50;;;;;;;21.57;8.30;;;12.40;99.90;;;;;;5106118;28;20513;-83
2024/02/19 11:19:17;;;;;;;15.03;8.70;;;12.40;99.90;;;;;;5107013;28;20461;-80
2024/02/19 11:21:44;;;;;;;20.43;9.40;;;12.40;99.90;;;;;;5107773;28;20474;-83
2024/02/19 11:24:12;;;;;;;12.53;8.77;;;12.30;99.90;;;;;;5102678;28;20485;-81
2024/02/19 11:26:42;;;;;;;14.50;8.70;;;12.20;99.90;;;;;;5104515;28;20450;-83
2024/02/19 11:29:14;;;;;;;20.73;8.77;;;12.20;99.90;;;;;;5105296;28;20432;-82
2024/02/19 11:31:43;;;;;;;10.07;8.67;;;12.30;99.90;;;;;;5105167;28;20506;-79
2024/02/19 11:34:14;;;;;;;15.17;8.27;;;12.50;99.90;;;;;;5102608;28;20455;-80
2024/02/19 11:36:42;;;;;;;12.27;7.87;;;12.60;99.90;;;;;;5104291;28;20470;-80
2024/02/19 11:39:09;;;;;;;13.77;8.00;;;12.90;99.90;;;;;;5102643;28;20513;-80
2024/02/19 11:41:36;;;;;;;15.07;8.53;;;13.30;99.90;;;;;;5091536;28;20554;-82
2024/02/19 11:44:04;;;;;;;13.47;9.70;;;13.40;99.90;;;;;;5095953;28;20444;-79
2024/02/19 11:46:31;;;;;;;12.03;8.60;;;13.10;99.90;;;;;;5102569;28;20633;-81
2024/02/19 11:48:59;;;;;;;11.73;8.27;;;13.10;99.90;;;;;;5099494;28;20524;-80
2024/02/19 11:51:26;;;;;;;15.17;8.20;;;13.10;99.90;;;;;;5093496;28;20511;-81
2024/02/19 11:53:53;;;;;;;12.70;8.00;;;13.00;99.90;;;;;;5102547;28;20536;-81
2024/02/19 11:56:20;;;;;;;15.57;8.70;;;13.00;99.90;;;;;;5099892;28;20450;-81
2024/02/19 11:58:50;;;;;;;22.30;8.43;;;13.00;99.90;;;;;;5102975;28;20547;-82
2024/02/19 12:01:20;;;;;;;14.30;7.83;;;13.00;99.90;;;;;;5092745;28;20564;-81
2024/02/19 12:03:47;;;;;;;17.23;7.70;;;12.90;99.90;;;;;;5104808;28;20474;-81
2024/02/19 12:06:15;;;;;;;11.70;7.37;;;12.70;99.90;;;;;;5097721;28;20507;-81
2024/02/19 12:08:42;;;;;;;11.90;8.30;;;12.70;99.90;;;;;;5104830;28;20844;-80
2024/02/19 12:11:09;;;;;;;13.83;8.67;;;12.50;99.90;;;;;;5103423;28;20465;-82
2024/02/19 12:13:38;;;;;;;10.13;7.90;;;12.50;99.90;;;;;;5104839;28;20526;-79
2024/02/19 12:16:06;;;;;;;14.57;8.30;;;12.50;99.90;;;;;;5102660;28;20444;-83
2024/02/19 12:18:32;;;;;;;11.47;8.83;;;12.70;99.90;;;;;;5092582;28;20522;-83
2024/02/19 12:20:59;;;;;;;13.07;8.17;;;12.80;99.90;;;;;;5101999;28;20478;-82
2024/02/19 12:23:28;;;;;;;15.77;8.40;;;13.00;99.90;;;;;;5099896;28;20456;-82
2024/02/19 12:25:54;;;;;;;10.87;7.30;;;13.10;99.90;;;;;;5101751;28;21083;-81
2024/02/19 12:28:21;;;;;;;11.10;7.93;;;13.30;99.90;;;;;;5099904;28;20516;-83
2024/02/19 12:30:48;;;;;;;13.50;8.27;;;13.20;99.90;;;;;;5097926;28;20461;-81
2024/02/19 12:33:15;;;;;;;11.27;6.93;;;13.30;99.90;;;;;;5101682;28;20477;-81
2024/02/19 12:35:46;;;;;;;14.20;6.87;;;14.10;99.90;;;;;;5102170;28;20481;-81
2024/02/19 12:38:13;;;;;;;11.60;6.40;;;14.50;99.90;;;;;;5102833;28;20468;-83
2024/02/19 12:40:42;;;;;;;13.37;6.13;;;15.30;99.90;;;;;;5100525;28;20480;-82
2024/02/19 12:43:09;;;;;;;11.43;7.57;;;15.60;99.90;;;;;;5099127;28;20501;-82
2024/02/19 12:45:36;;;;;;;10.27;6.10;;;15.50;99.90;;;;;;5082377;28;20455;-83
2024/02/19 12:48:03;;;;;;;9.80;7.37;;;15.10;99.90;;;;;;5098886;28;20482;-81